Time;durP1;ratioP1;P1;durP2;ratioP2;P2;SDS_P1;SDS_P2;PMS_P1;PMS_P2;Temp;Humidity;BMP_temperature;BMP_pressure;BME280_temperature;BME280_humidity;BME280_pressure;Samples;Min_cycle;Max_cycle;Signal;HPM_P1;HPM_P2
2023/09/18 00:00:12;;;;;;;;;;;;;;;15.72;100.00;100609.59;1061256;27;19958;-51
2023/09/18 00:00:44;;;;;;;;;;;;;;;15.68;100.00;100608.50;1061582;27;20024;-51
2023/09/18 00:01:15;;;;;;;;;;;;;;;15.71;100.00;100612.53;1061230;27;19923;-52
2023/09/18 00:01:47;;;;;;;;;;;;;;;15.75;100.00;100608.28;1061247;27;19950;-49
2023/09/18 00:02:18;;;;;;;;;;;;;;;15.74;100.00;100606.66;1061521;27;19950;-50
2023/09/18 00:02:50;;;;;;;;;;;;;;;15.72;100.00;100609.59;1061479;27;19927;-51
2023/09/18 00:03:24;;;;;;;;;;;;;;;15.75;100.00;100614.47;1061251;27;20346;-51
2023/09/18 00:03:57;;;;;;;;;;;;;;;15.79;100.00;100606.69;1061070;27;19930;-51
2023/09/18 00:04:29;;;;;;;;;;;;;;;15.88;100.00;100602.47;1061581;27;19928;-51
2023/09/18 00:05:00;;;;;;;;;;;;;;;15.95;100.00;100602.28;1061393;27;19924;-51
2023/09/18 00:05:32;;;;;;;;;;;;;;;15.97;100.00;100598.25;1061234;27;20162;-50
2023/09/18 00:06:04;;;;;;;;;;;;;;;15.95;100.00;100592.31;1056562;28;19932;-53
2023/09/18 00:06:36;;;;;;;;;;;;;;;15.98;100.00;100591.81;1057024;28;20000;-54
2023/09/18 00:07:07;;;;;;;;;;;;;;;15.97;100.00;100589.38;1056290;28;19955;-54
2023/09/18 00:07:39;;;;;;;;;;;;;;;15.97;100.00;100584.00;1057972;27;19973;-53
2023/09/18 00:08:10;;;;;;;;;;;;;;;16.00;100.00;100583.50;1061453;27;20388;-53
2023/09/18 00:08:43;;;;;;;;;;;;;;;16.00;100.00;100580.81;1062542;27;19977;-53
2023/09/18 00:09:14;;;;;;;;;;;;;;;16.05;100.00;100581.66;1061311;27;19923;-54
2023/09/18 00:09:46;;;;;;;;;;;;;;;16.06;100.00;100577.88;1061309;27;19931;-54
2023/09/18 00:10:18;;;;;;;;;;;;;;;16.07;100.00;100573.31;1061360;27;19978;-52
2023/09/18 00:10:50;;;;;;;;;;;;;;;16.08;100.00;100574.94;1061529;27;19930;-53
2023/09/18 00:11:22;;;;;;;;;;;;;;;16.10;100.00;100574.69;1061142;27;20381;-54
2023/09/18 00:11:53;;;;;;;;;;;;;;;16.05;100.00;100564.72;1061308;27;19927;-53
2023/09/18 00:12:25;;;;;;;;;;;;;;;16.07;100.00;100559.88;1061147;27;19924;-53
2023/09/18 00:12:56;;;;;;;;;;;;;;;16.09;100.00;100568.50;1061343;27;19930;-54
2023/09/18 00:13:28;;;;;;;;;;;;;;;16.10;100.00;100563.94;1060920;27;19923;-53
2023/09/18 00:14:00;;;;;;;;;;;;;;;16.02;100.00;100565.22;1059111;27;19931;-54
2023/09/18 00:14:31;;;;;;;;;;;;;;;15.96;100.00;100560.91;1061416;27;19928;-54
2023/09/18 00:15:03;;;;;;;;;;;;;;;15.92;100.00;100565.19;1061323;27;20493;-51
2023/09/18 00:15:36;;;;;;;;;;;;;;;15.91;100.00;100563.56;1061082;27;19930;-51
2023/09/18 00:16:08;;;;;;;;;;;;;;;15.89;100.00;100565.69;1061557;27;19931;-50
2023/09/18 00:16:40;;;;;;;;;;;;;;;15.88;100.00;100561.38;1061215;27;19930;-51
2023/09/18 00:17:28;;;;;;;;;;;;;;;15.87;100.00;100565.94;1061542;27;20384;-50
2023/09/18 00:18:01;;;;;;;;;;;;;;;15.86;100.00;100566.19;1061161;27;20023;-54
2023/09/18 00:18:32;;;;;;;;;;;;;;;15.74;100.00;100564.50;1061052;27;19970;-53
2023/09/18 00:19:06;;;;;;;;;;;;;;;15.81;100.00;100568.84;1061386;27;19963;-54
2023/09/18 00:19:37;;;;;;;;;;;;;;;15.81;100.00;100569.66;1061629;27;19934;-51
2023/09/18 00:20:09;;;;;;;;;;;;;;;15.87;100.00;100573.19;1059952;27;20316;-49
2023/09/18 00:20:41;;;;;;;;;;;;;;;15.74;100.00;100569.88;1060958;27;20019;-51
2023/09/18 00:21:13;;;;;;;;;;;;;;;15.72;100.00;100563.94;1061448;27;20311;-51
2023/09/18 00:21:44;;;;;;;;;;;;;;;15.79;100.00;100562.91;1054997;28;19924;-50
2023/09/18 00:22:16;;;;;;;;;;;;;;;15.63;100.00;100565.50;1056402;28;19923;-52
2023/09/18 00:22:47;;;;;;;;;;;;;;;15.66;100.00;100562.31;1057364;28;19927;-51
2023/09/18 00:23:19;;;;;;;;;;;;;;;15.68;100.00;100560.16;1058085;27;20026;-54
2023/09/18 00:23:51;;;;;;;;;;;;;;;15.67;100.00;100558.53;1061137;27;19923;-54
2023/09/18 00:24:22;;;;;;;;;;;;;;;15.63;100.00;100557.44;1061412;27;20036;-54
2023/09/18 00:24:54;;;;;;;;;;;;;;;15.62;100.00;100561.19;1061212;27;19932;-53
2023/09/18 00:25:26;;;;;;;;;;;;;;;15.54;100.00;100558.13;1061948;27;20416;-50
2023/09/18 00:25:57;;;;;;;;;;;;;;;15.70;100.00;100568.78;1061356;27;19931;-52
2023/09/18 00:26:29;;;;;;;;;;;;;;;15.68;100.00;100565.53;1061332;27;19963;-51
2023/09/18 00:27:01;;;;;;;;;;;;;;;15.63;100.00;100567.38;1056776;28;20355;-52
2023/09/18 00:27:33;;;;;;;;;;;;;;;15.53;100.00;100567.25;1049964;28;19935;-50
2023/09/18 00:28:04;;;;;;;;;;;;;;;15.54;100.00;100566.97;1052624;28;19931;-54
2023/09/18 00:28:36;;;;;;;;;;;;;;;15.57;100.00;100557.59;1052781;28;20157;-54
2023/09/18 00:29:07;;;;;;;;;;;;;;;15.60;100.00;100557.94;1052804;28;20401;-54
2023/09/18 00:29:39;;;;;;;;;;;;;;;15.47;100.00;100558.34;1056790;28;20413;-54
2023/09/18 00:30:11;;;;;;;;;;;;;;;15.41;100.00;100559.38;1052133;28;19924;-54
2023/09/18 00:30:46;;;;;;;;;;;;;;;15.43;100.00;100552.69;1047539;28;19929;-54
2023/09/18 00:31:18;;;;;;;;;;;;;;;15.47;100.00;100558.34;1048620;28;20041;-54
2023/09/18 00:31:51;;;;;;;;;;;;;;;15.51;100.00;100559.44;1047247;28;20272;-54
2023/09/18 00:32:23;;;;;;;;;;;;;;;15.54;100.00;100558.13;1048935;28;20404;-54
2023/09/18 00:32:54;;;;;;;;;;;;;;;15.60;100.00;100554.44;1052379;28;20715;-51
2023/09/18 00:33:26;;;;;;;;;;;;;;;15.64;100.00;100553.69;1052770;28;20153;-54
2023/09/18 00:33:57;;;;;;;;;;;;;;;15.63;100.00;100552.06;1052620;28;19928;-54
2023/09/18 00:34:30;;;;;;;;;;;;;;;15.61;100.00;100546.16;1051440;28;20366;-53
2023/09/18 00:35:02;;;;;;;;;;;;;;;15.60;100.00;100541.00;1052773;28;20402;-54
2023/09/18 00:35:34;;;;;;;;;;;;;;;15.72;100.00;100547.84;1049445;28;19928;-52
2023/09/18 00:36:06;;;;;;;;;;;;;;;15.84;100.00;100538.78;1053031;28;19935;-54
2023/09/18 00:36:38;;;;;;;;;;;;;;;15.94;100.00;100538.88;1052225;28;20382;-54
2023/09/18 00:37:12;;;;;;;;;;;;;;;15.98;100.00;100537.28;1048782;28;20077;-54
2023/09/18 00:37:44;;;;;;;;;;;;;;;16.00;100.00;100540.50;1047730;28;20085;-54
2023/09/18 00:38:16;;;;;;;;;;;;;;;16.06;100.00;100529.53;1048847;28;20007;-49
2023/09/18 00:38:47;;;;;;;;;;;;;;;16.12;100.00;100527.66;1053559;28;19924;-51
2023/09/18 00:39:19;;;;;;;;;;;;;;;16.14;100.00;100522.84;1056818;27;19947;-50
2023/09/18 00:39:50;;;;;;;;;;;;;;;16.15;100.00;100527.16;1057679;28;19924;-49
2023/09/18 00:40:22;;;;;;;;;;;;;;;16.15;100.00;100524.47;1057278;28;19928;-49
2023/09/18 00:40:53;;;;;;;;;;;;;;;16.17;100.00;100511.59;1052084;28;20405;-54
2023/09/18 00:41:25;;;;;;;;;;;;;;;16.15;100.00;100515.59;1051838;28;19924;-53
2023/09/18 00:41:57;;;;;;;;;;;;;;;16.17;100.00;100510.78;1056885;28;19923;-54
2023/09/18 00:42:34;;;;;;;;;;;;;;;16.18;100.00;100505.16;1053748;27;19927;-53
2023/09/18 00:43:06;;;;;;;;;;;;;;;16.16;100.00;100512.66;1061857;27;19983;-53
2023/09/18 00:43:38;;;;;;;;;;;;;;;16.19;100.00;100505.97;1062099;27;19927;-54
2023/09/18 00:44:10;;;;;;;;;;;;;;;16.19;100.00;100501.41;1057107;28;19973;-51
2023/09/18 00:44:42;;;;;;;;;;;;;;;16.19;100.00;100506.78;1053942;28;19924;-52
2023/09/18 00:45:13;;;;;;;;;;;;;;;16.20;100.00;100503.00;1052319;28;19928;-48
2023/09/18 00:45:45;;;;;;;;;;;;;;;16.16;100.00;100501.91;1052533;28;20080;-50
2023/09/18 00:46:17;;;;;;;;;;;;;;;16.12;100.00;100500.00;1056598;28;20297;-52
2023/09/18 00:46:49;;;;;;;;;;;;;;;16.09;100.00;100495.94;1056733;27;19927;-52
2023/09/18 00:47:20;;;;;;;;;;;;;;;16.06;100.00;100499.16;1061131;27;20210;-49
2023/09/18 00:47:52;;;;;;;;;;;;;;;15.77;100.00;100493.34;1061399;27;19930;-50
2023/09/18 00:48:23;;;;;;;;;;;;;;;15.75;100.00;100490.94;1055273;28;20346;-53
2023/09/18 00:48:55;;;;;;;;;;;;;;;15.82;100.00;100487.19;1057067;28;19924;-53
2023/09/18 00:49:26;;;;;;;;;;;;;;;15.83;100.00;100488.81;1056767;28;20254;-52
2023/09/18 00:49:58;;;;;;;;;;;;;;;15.83;100.00;100494.19;1057003;27;19934;-51
2023/09/18 00:50:29;;;;;;;;;;;;;;;15.82;100.00;100495.25;1061231;27;19924;-51
2023/09/18 00:51:01;;;;;;;;;;;;;;;15.66;100.00;100503.22;1061036;27;20022;-54
2023/09/18 00:51:33;;;;;;;;;;;;;;;15.61;100.00;100500.50;1061187;27;19927;-53
2023/09/18 00:52:04;;;;;;;;;;;;;;;15.69;100.00;100508.06;1055893;28;19934;-54
2023/09/18 00:52:37;;;;;;;;;;;;;;;15.71;100.00;100508.63;1052403;28;19946;-54
2023/09/18 00:53:09;;;;;;;;;;;;;;;15.58;100.00;100506.38;1052342;28;19939;-54
2023/09/18 00:53:44;;;;;;;;;;;;;;;15.65;100.00;100511.53;1053097;28;19959;-52
2023/09/18 00:54:18;;;;;;;;;;;;;;;15.77;100.00;100504.09;1053613;28;19957;-50
2023/09/18 00:54:49;;;;;;;;;;;;;;;15.76;100.00;100500.59;1056548;28;19982;-51
2023/09/18 00:55:21;;;;;;;;;;;;;;;15.70;100.00;100498.97;1052196;28;20028;-51
2023/09/18 00:55:53;;;;;;;;;;;;;;;15.71;100.00;100505.94;1052251;28;20359;-51
2023/09/18 00:56:25;;;;;;;;;;;;;;;15.84;100.00;100501.19;1046770;28;20074;-52
2023/09/18 00:56:56;;;;;;;;;;;;;;;15.82;100.00;100500.63;1052709;28;20015;-51
2023/09/18 00:57:28;;;;;;;;;;;;;;;15.74;100.00;100497.38;1052317;28;19959;-50
2023/09/18 00:57:59;;;;;;;;;;;;;;;15.76;100.00;100487.16;1053089;28;19924;-52
2023/09/18 00:58:31;;;;;;;;;;;;;;;15.75;100.00;100490.94;1056473;28;20072;-50
2023/09/18 00:59:03;;;;;;;;;;;;;;;15.84;100.00;100490.44;1056988;27;20427;-51
2023/09/18 00:59:34;;;;;;;;;;;;;;;15.84;100.00;100487.75;1061424;27;19927;-50
2023/09/18 01:00:06;;;;;;;;;;;;;;;15.91;100.00;100493.72;1056379;28;20413;-52
2023/09/18 01:00:38;;;;;;;;;;;;;;;15.84;100.00;100485.06;1056404;28;19930;-52
2023/09/18 01:01:10;;;;;;;;;;;;;;;15.94;100.00;100490.50;1053617;28;19963;-53
2023/09/18 01:01:42;;;;;;;;;;;;;;;15.88;100.00;100492.34;1049429;28;19932;-51
2023/09/18 01:02:13;;;;;;;;;;;;;;;15.88;100.00;100488.84;1052704;28;19950;-54
2023/09/18 01:02:45;;;;;;;;;;;;;;;15.93;100.00;100491.59;1052030;28;19924;-54
2023/09/18 01:03:20;;;;;;;;;;;;;;;16.00;100.00;100482.22;1054261;28;19928;-52
2023/09/18 01:03:53;;;;;;;;;;;;;;;16.03;100.00;100488.94;1054787;28;19924;-53
2023/09/18 01:04:25;;;;;;;;;;;;;;;16.10;100.00;100486.81;1052430;28;19930;-54
2023/09/18 01:04:57;;;;;;;;;;;;;;;16.15;100.00;100486.84;1052079;28;20558;-54
2023/09/18 01:05:30;;;;;;;;;;;;;;;16.50;100.00;100482.69;1053065;28;20021;-53
2023/09/18 01:06:03;;;;;;;;;;;;;;;16.22;100.00;100483.94;1052142;28;19928;-54
2023/09/18 01:06:35;;;;;;;;;;;;;;;16.22;100.00;100479.38;1052367;28;19936;-54
2023/09/18 01:07:06;;;;;;;;;;;;;;;16.43;100.00;100474.06;1053187;28;20318;-54
2023/09/18 01:07:38;;;;;;;;;;;;;;;16.39;100.00;100469.22;1052598;28;19928;-54
2023/09/18 01:08:09;;;;;;;;;;;;;;;16.49;100.00;100473.03;1052871;28;20305;-54
2023/09/18 01:08:41;;;;;;;;;;;;;;;16.49;100.00;100473.03;1052170;28;20275;-53
2023/09/18 01:09:12;;;;;;;;;;;;;;;16.54;100.00;100467.66;1052657;28;19958;-51
2023/09/18 01:09:44;;;;;;;;;;;;;;;16.59;100.00;100473.03;1052630;28;20062;-51
2023/09/18 01:10:16;;;;;;;;;;;;;;;16.64;100.00;100471.16;1052056;28;19924;-50
2023/09/18 01:10:54;;;;;;;;;;;;;;;16.65;100.00;100471.97;1052377;28;20069;-49
2023/09/18 01:11:31;;;;;;;;;;;;;;;16.69;100.00;100467.72;1052666;28;19932;-54
2023/09/18 01:12:12;;;;;;;;;;;;;;;16.71;100.00;100475.50;1056354;28;19932;-54
2023/09/18 01:12:48;;;;;;;;;;;;;;;16.73;100.00;100471.50;1048016;28;19993;-54
2023/09/18 01:13:21;;;;;;;;;;;;;;;16.79;100.00;100472.31;1046885;28;19924;-54
2023/09/18 01:14:12;;;;;;;;;;;;;;;16.80;100.00;100469.38;1047819;28;20043;-53
2023/09/18 01:14:57;;;;;;;;;;;;;;;17.12;100.00;100476.41;1052345;28;20017;-53
2023/09/18 01:15:41;;;;;;;;;;;;;;;17.04;100.00;100460.78;1059413;27;20004;-52
2023/09/18 01:16:20;;;;;;;;;;;;;;;17.07;100.00;100473.72;1058761;27;20293;-54
2023/09/18 01:16:56;;;;;;;;;;;;;;;17.21;100.00;100464.81;1054142;28;19924;-54
2023/09/18 01:17:28;;;;;;;;;;;;;;;17.19;100.00;100460.78;1056150;28;19924;-54
2023/09/18 01:17:59;;;;;;;;;;;;;;;17.17;100.00;100463.75;1048029;28;19924;-54
2023/09/18 01:18:31;;;;;;;;;;;;;;;17.22;100.00;100461.03;1048865;28;20250;-53
2023/09/18 01:19:04;;;;;;;;;;;;;;;17.29;100.00;100464.28;1046093;28;19933;-54
2023/09/18 01:19:39;;;;;;;;;;;;;;;17.30;100.00;100462.41;1049135;28;19925;-53
2023/09/18 01:20:11;;;;;;;;;;;;;;;17.29;100.00;100468.88;1056584;28;20442;-53
2023/09/18 01:20:43;;;;;;;;;;;;;;;17.28;100.00;100464.56;1057284;27;20018;-53
2023/09/18 01:21:14;;;;;;;;;;;;;;;17.25;100.00;100462.38;1061431;27;20274;-53
2023/09/18 01:21:46;;;;;;;;;;;;;;;17.19;100.00;100456.19;1061102;27;20369;-51
2023/09/18 01:22:18;;;;;;;;;;;;;;;17.27;100.00;100460.25;1060776;27;19931;-50
2023/09/18 01:22:50;;;;;;;;;;;;;;;17.31;100.00;100464.03;1061188;27;19924;-49
2023/09/18 01:23:22;;;;;;;;;;;;;;;17.29;100.00;100467.00;1061229;27;19923;-51
2023/09/18 01:23:53;;;;;;;;;;;;;;;17.32;100.00;100457.56;1060864;27;19924;-50
2023/09/18 01:24:25;;;;;;;;;;;;;;;17.27;100.00;100452.19;1062152;27;19924;-53
2023/09/18 01:24:56;;;;;;;;;;;;;;;17.35;100.00;100451.63;1056755;28;19923;-54
2023/09/18 01:25:28;;;;;;;;;;;;;;;17.30;100.00;100460.53;1057806;28;19931;-53
2023/09/18 01:25:59;;;;;;;;;;;;;;;17.35;100.00;100450.81;1051694;28;20291;-52
2023/09/18 01:26:31;;;;;;;;;;;;;;;17.35;100.00;100443.56;1048728;28;19933;-53
2023/09/18 01:27:05;;;;;;;;;;;;;;;17.33;100.00;100451.09;1052021;28;20058;-54
2023/09/18 01:27:37;;;;;;;;;;;;;;;17.34;100.00;100449.22;1050169;28;20019;-53
2023/09/18 01:28:08;;;;;;;;;;;;;;;17.36;100.00;100445.16;1057247;27;20385;-54
2023/09/18 01:28:40;;;;;;;;;;;;;;;17.43;100.00;100440.31;1056644;28;19924;-53
2023/09/18 01:29:11;;;;;;;;;;;;;;;17.41;100.00;100450.53;1056299;28;19924;-53
2023/09/18 01:29:44;;;;;;;;;;;;;;;17.47;100.00;100441.38;1056554;28;19982;-51
2023/09/18 01:30:15;;;;;;;;;;;;;;;17.53;100.00;100443.00;1052481;28;20014;-47
2023/09/18 01:30:47;;;;;;;;;;;;;;;17.47;100.00;100445.97;1047967;28;20329;-51
2023/09/18 01:31:19;;;;;;;;;;;;;;;17.47;100.00;100446.75;1047472;28;19928;-50
2023/09/18 01:31:51;;;;;;;;;;;;;;;17.46;100.00;100441.66;1049085;28;19976;-51
2023/09/18 01:32:26;;;;;;;;;;;;;;;17.48;100.00;100440.28;1056417;28;19924;-49
2023/09/18 01:32:57;;;;;;;;;;;;;;;17.46;100.00;100437.06;1052364;28;19924;-49
2023/09/18 01:33:29;;;;;;;;;;;;;;;17.55;100.00;100432.78;1052246;28;19932;-50
2023/09/18 01:34:00;;;;;;;;;;;;;;;17.52;100.00;100438.66;1053013;28;20225;-50
2023/09/18 01:34:37;;;;;;;;;;;;;;;17.49;100.00;100435.72;1056336;28;19924;-49
2023/09/18 01:35:09;;;;;;;;;;;;;;;17.54;100.00;100439.22;1052313;28;19928;-50
2023/09/18 01:35:41;;;;;;;;;;;;;;;17.54;100.00;100436.53;1049302;28;19929;-51
2023/09/18 01:36:12;;;;;;;;;;;;;;;17.56;100.00;100434.38;1047632;28;19973;-50
2023/09/18 01:36:44;;;;;;;;;;;;;;;17.52;100.00;100433.28;1048562;28;20317;-51
2023/09/18 01:37:16;;;;;;;;;;;;;;;17.58;100.00;100426.84;1046410;28;19925;-52
2023/09/18 01:37:48;;;;;;;;;;;;;;;17.53;100.00;100426.00;1052097;28;20455;-50
2023/09/18 01:38:19;;;;;;;;;;;;;;;17.54;100.00;100422.28;1048660;28;20378;-51
2023/09/18 01:38:51;;;;;;;;;;;;;;;17.56;100.00;100429.00;1051136;28;20366;-51
2023/09/18 01:39:24;;;;;;;;;;;;;;;17.56;100.00;100418.22;1051767;28;19928;-51
2023/09/18 01:39:58;;;;;;;;;;;;;;;17.56;100.00;100420.09;1048596;28;19924;-53
2023/09/18 01:40:30;;;;;;;;;;;;;;;17.57;100.00;100419.03;1048030;28;19925;-54
2023/09/18 01:41:02;;;;;;;;;;;;;;;17.64;100.00;100416.03;1045008;28;20420;-53
2023/09/18 01:41:34;;;;;;;;;;;;;;;17.61;100.00;100415.50;1048912;28;19928;-53
2023/09/18 01:42:06;;;;;;;;;;;;;;;17.64;100.00;100407.97;1049199;28;19924;-53
2023/09/18 01:42:38;;;;;;;;;;;;;;;17.65;100.00;100410.38;1048063;28;19971;-48
2023/09/18 01:43:10;;;;;;;;;;;;;;;17.59;100.00;100406.09;1042522;28;19925;-51
2023/09/18 01:43:41;;;;;;;;;;;;;;;17.60;100.00;100403.13;1035745;28;19957;-50
2023/09/18 01:44:13;;;;;;;;;;;;;;;17.59;100.00;100406.91;1039548;28;19979;-50
2023/09/18 01:44:44;;;;;;;;;;;;;;;17.62;100.00;100410.94;1039859;28;20023;-50
2023/09/18 01:45:17;;;;;;;;;;;;;;;17.66;100.00;100403.91;1039831;28;19925;-53
2023/09/18 01:45:48;;;;;;;;;;;;;;;17.58;100.00;100399.91;1043961;28;19951;-53
2023/09/18 01:46:20;;;;;;;;;;;;;;;17.61;100.00;100395.84;1047388;28;20391;-53
2023/09/18 01:46:51;;;;;;;;;;;;;;;17.56;100.00;100398.56;1048019;28;19928;-53
2023/09/18 01:47:23;;;;;;;;;;;;;;;17.62;100.00;100402.84;1046012;28;20447;-53
2023/09/18 01:47:55;;;;;;;;;;;;;;;17.58;100.00;100399.09;1048524;28;19925;-54
2023/09/18 01:48:26;;;;;;;;;;;;;;;17.56;100.00;100396.69;1050091;28;19932;-54
2023/09/18 01:48:58;;;;;;;;;;;;;;;17.57;100.00;100397.47;1052428;28;19924;-54
2023/09/18 01:49:31;;;;;;;;;;;;;;;17.55;100.00;100395.06;1056101;28;19923;-54
2023/09/18 01:50:05;;;;;;;;;;;;;;;17.47;100.00;100392.09;1056480;28;20011;-54
2023/09/18 01:50:37;;;;;;;;;;;;;;;17.52;100.00;100387.50;1052111;28;19947;-54
2023/09/18 01:51:08;;;;;;;;;;;;;;;17.52;100.00;100395.59;1043512;28;19947;-53
2023/09/18 01:51:40;;;;;;;;;;;;;;;17.59;100.00;100381.84;1040422;28;20039;-54
2023/09/18 01:52:12;;;;;;;;;;;;;;;17.64;100.00;100389.91;1042120;28;20307;-53
2023/09/18 01:52:43;;;;;;;;;;;;;;;17.61;100.00;100388.56;1044264;28;19931;-53
2023/09/18 01:53:15;;;;;;;;;;;;;;;17.57;100.00;100386.72;1052419;28;19939;-54
2023/09/18 01:53:46;;;;;;;;;;;;;;;17.54;100.00;100382.69;1054220;28;19931;-54
2023/09/18 01:54:18;;;;;;;;;;;;;;;17.56;100.00;100385.91;1056068;28;19998;-54
2023/09/18 01:54:49;;;;;;;;;;;;;;;17.65;100.00;100380.75;1056109;28;20304;-53
2023/09/18 01:55:21;;;;;;;;;;;;;;;17.60;100.00;100381.56;1048574;28;20053;-54
2023/09/18 01:55:53;;;;;;;;;;;;;;;17.61;100.00;100377.81;1051809;28;19959;-54
2023/09/18 01:56:24;;;;;;;;;;;;;;;17.57;100.00;100378.63;1047769;28;19928;-54
2023/09/18 01:56:56;;;;;;;;;;;;;;;17.57;100.00;100371.34;1047712;28;19925;-54
2023/09/18 01:57:28;;;;;;;;;;;;;;;17.55;100.00;100370.03;1051335;28;19970;-54
2023/09/18 01:57:59;;;;;;;;;;;;;;;17.57;100.00;100376.75;1048064;28;19929;-53
2023/09/18 01:58:32;;;;;;;;;;;;;;;17.58;100.00;100377.56;1048244;28;19925;-54
2023/09/18 01:59:04;;;;;;;;;;;;;;;17.60;100.00;100381.56;1048530;28;19928;-54
2023/09/18 01:59:36;;;;;;;;;;;;;;;17.54;100.00;100371.91;1048116;28;20023;-53
2023/09/18 02:00:09;;;;;;;;;;;;;;;17.56;100.00;100369.75;1049526;28;20000;-53
2023/09/18 02:00:44;;;;;;;;;;;;;;;17.56;100.00;100369.75;1052231;28;19931;-53
2023/09/18 02:01:16;;;;;;;;;;;;;;;17.58;100.00;100367.59;1053326;28;19959;-52
2023/09/18 02:01:48;;;;;;;;;;;;;;;17.61;100.00;100367.03;1060636;27;19924;-53
2023/09/18 02:02:20;;;;;;;;;;;;;;;17.63;100.00;100374.03;1060887;27;19930;-53
2023/09/18 02:03:12;;;;;;;;;;;;;;;17.67;100.00;100367.00;1060697;27;19923;-53
2023/09/18 02:04:04;;;;;;;;;;;;;;;17.67;100.00;100365.16;1058018;27;19931;-54
2023/09/18 02:04:55;;;;;;;;;;;;;;;17.63;100.00;100363.25;1056558;28;19924;-49
2023/09/18 02:05:39;;;;;;;;;;;;;;;17.66;100.00;100360.00;1054648;28;19968;-49
2023/09/18 02:06:11;;;;;;;;;;;;;;;17.65;100.00;100366.47;1056048;28;20369;-50
2023/09/18 02:06:44;;;;;;;;;;;;;;;17.63;100.00;100360.56;1053992;28;19947;-49
2023/09/18 02:07:15;;;;;;;;;;;;;;;17.70;100.00;100363.78;1056494;28;19927;-50
2023/09/18 02:07:47;;;;;;;;;;;;;;;17.70;100.00;100363.78;1056524;28;19969;-51
2023/09/18 02:08:19;;;;;;;;;;;;;;;17.67;100.00;100358.94;1055948;28;20406;-50
2023/09/18 02:08:50;;;;;;;;;;;;;;;17.69;100.00;100357.59;1056336;28;19931;-49
2023/09/18 02:09:23;;;;;;;;;;;;;;;17.70;100.00;100363.78;1052221;28;20326;-52
2023/09/18 02:09:54;;;;;;;;;;;;;;;17.73;100.00;100363.25;1052413;28;20408;-52
2023/09/18 02:10:26;;;;;;;;;;;;;;;17.61;100.00;100358.94;1056270;28;19927;-51
2023/09/18 02:10:58;;;;;;;;;;;;;;;17.54;100.00;100352.25;1056851;27;20348;-54
2023/09/18 02:11:30;;;;;;;;;;;;;;;17.58;100.00;100367.59;1056357;28;19927;-53
2023/09/18 02:12:02;;;;;;;;;;;;;;;17.60;100.00;100359.22;1055583;28;20742;-53
2023/09/18 02:12:34;;;;;;;;;;;;;;;17.64;100.00;100365.66;1052580;28;20389;-53
2023/09/18 02:13:08;;;;;;;;;;;;;;;17.66;100.00;100371.59;1053152;28;20094;-51
2023/09/18 02:13:39;;;;;;;;;;;;;;;17.61;100.00;100363.53;1049517;28;19930;-52
2023/09/18 02:14:11;;;;;;;;;;;;;;;17.63;100.00;100360.56;1052021;28;20286;-52
2023/09/18 02:14:43;;;;;;;;;;;;;;;17.61;100.00;100361.66;1052022;28;19939;-51
2023/09/18 02:15:16;;;;;;;;;;;;;;;17.68;100.00;100355.19;1052087;28;19928;-51
2023/09/18 02:15:48;;;;;;;;;;;;;;;17.69;100.00;100370.25;1054687;27;19928;-53
2023/09/18 02:16:23;;;;;;;;;;;;;;;17.67;100.00;100369.69;1060808;27;20297;-54
2023/09/18 02:16:55;;;;;;;;;;;;;;;17.62;100.00;100362.44;1060726;27;19934;-53
2023/09/18 02:17:26;;;;;;;;;;;;;;;17.68;100.00;100371.34;1061775;27;19930;-51
2023/09/18 02:17:58;;;;;;;;;;;;;;;17.71;100.00;100363.50;1057346;28;19981;-48
2023/09/18 02:18:30;;;;;;;;;;;;;;;17.73;100.00;100363.25;1055825;28;20465;-51
2023/09/18 02:19:02;;;;;;;;;;;;;;;17.74;100.00;100365.66;1056258;28;20018;-51
2023/09/18 02:19:34;;;;;;;;;;;;;;;17.71;100.00;100360.81;1056272;28;19924;-52
2023/09/18 02:20:11;;;;;;;;;;;;;;;17.77;100.00;100357.03;1053731;28;19931;-51
2023/09/18 02:20:47;;;;;;;;;;;;;;;17.74;100.00;100364.84;1056576;28;20065;-51
2023/09/18 02:21:21;;;;;;;;;;;;;;;17.64;100.00;100359.47;1050110;28;20010;-49
2023/09/18 02:21:55;;;;;;;;;;;;;;;17.65;100.00;100361.09;1051697;28;19924;-49
2023/09/18 02:22:27;;;;;;;;;;;;;;;17.69;100.00;100363.00;1056125;28;20402;-49
2023/09/18 02:22:58;;;;;;;;;;;;;;;17.72;100.00;100359.75;1057391;27;19924;-49
2023/09/18 02:23:30;;;;;;;;;;;;;;;17.75;100.00;100363.78;1058374;27;19954;-50
2023/09/18 02:24:01;;;;;;;;;;;;;;;17.78;100.00;100357.81;1056053;28;20321;-50
2023/09/18 02:24:34;;;;;;;;;;;;;;;17.71;100.00;100365.41;1056250;28;20814;-52
2023/09/18 02:25:06;;;;;;;;;;;;;;;17.72;100.00;100345.47;1051646;28;20702;-48
2023/09/18 02:25:40;;;;;;;;;;;;;;;17.73;100.00;100357.84;1052171;28;19931;-50
2023/09/18 02:26:12;;;;;;;;;;;;;;;17.74;100.00;100356.78;1051361;28;19924;-48
2023/09/18 02:26:45;;;;;;;;;;;;;;;17.71;100.00;100351.94;1052519;28;19932;-50
2023/09/18 02:27:18;;;;;;;;;;;;;;;17.68;100.00;100356.00;1056623;28;19972;-51
2023/09/18 02:27:50;;;;;;;;;;;;;;;17.72;100.00;100356.25;1054955;27;19934;-49
2023/09/18 02:28:22;;;;;;;;;;;;;;;17.73;100.00;100355.16;1062053;27;19923;-51
2023/09/18 02:28:54;;;;;;;;;;;;;;;17.71;100.00;100355.44;1056178;28;20051;-54
2023/09/18 02:29:26;;;;;;;;;;;;;;;17.75;100.00;100358.38;1052692;28;19939;-48
2023/09/18 02:29:59;;;;;;;;;;;;;;;17.71;100.00;100357.31;1051571;28;19924;-49
2023/09/18 02:30:30;;;;;;;;;;;;;;;17.70;100.00;100359.22;1052574;28;19928;-50
2023/09/18 02:31:02;;;;;;;;;;;;;;;17.67;100.00;100353.53;1056599;28;19924;-50
2023/09/18 02:31:34;;;;;;;;;;;;;;;17.64;100.00;100354.91;1056696;27;20010;-49
2023/09/18 02:32:05;;;;;;;;;;;;;;;17.69;100.00;100351.41;1060614;27;19928;-49
2023/09/18 02:32:37;;;;;;;;;;;;;;;17.65;100.00;100355.72;1060681;27;19976;-51
2023/09/18 02:33:09;;;;;;;;;;;;;;;17.65;100.00;100355.72;1056462;28;19946;-49
2023/09/18 02:33:41;;;;;;;;;;;;;;;17.68;100.00;100355.19;1055788;28;19924;-48
2023/09/18 02:34:13;;;;;;;;;;;;;;;17.72;100.00;100356.25;1052664;28;19954;-51
2023/09/18 02:34:44;;;;;;;;;;;;;;;17.65;100.00;100344.94;1053003;28;19924;-53
2023/09/18 02:35:16;;;;;;;;;;;;;;;17.69;100.00;100340.63;1055921;28;20079;-53
2023/09/18 02:35:47;;;;;;;;;;;;;;;17.72;100.00;100337.38;1056076;27;20357;-53
2023/09/18 02:36:19;;;;;;;;;;;;;;;17.68;100.00;100336.31;1057175;28;20023;-51
2023/09/18 02:36:53;;;;;;;;;;;;;;;17.67;100.00;100346.28;1056378;27;19931;-54
2023/09/18 02:37:25;;;;;;;;;;;;;;;17.73;100.00;100336.31;1055911;28;19927;-54
2023/09/18 02:37:57;;;;;;;;;;;;;;;17.68;100.00;100345.22;1052818;28;19924;-54
2023/09/18 02:38:29;;;;;;;;;;;;;;;17.64;100.00;100343.31;1056461;28;19946;-53
2023/09/18 02:39:02;;;;;;;;;;;;;;;17.66;100.00;100335.75;1056220;28;20137;-50
2023/09/18 02:39:33;;;;;;;;;;;;;;;17.71;100.00;100338.47;1056967;28;19924;-51
2023/09/18 02:40:05;;;;;;;;;;;;;;;17.66;100.00;100333.06;1060403;27;19931;-50
2023/09/18 02:40:37;;;;;;;;;;;;;;;17.69;100.00;100329.84;1060986;27;19924;-50
2023/09/18 02:41:08;;;;;;;;;;;;;;;17.64;100.00;100327.97;1060853;27;20068;-49
2023/09/18 02:41:40;;;;;;;;;;;;;;;17.69;100.00;100330.66;1055770;28;19962;-53
2023/09/18 02:42:11;;;;;;;;;;;;;;;17.66;100.00;100335.75;1056317;28;19923;-54
2023/09/18 02:42:43;;;;;;;;;;;;;;;17.67;100.00;100326.59;1051966;28;20370;-53
2023/09/18 02:43:15;;;;;;;;;;;;;;;17.66;100.00;100330.38;1052376;28;19928;-54
2023/09/18 02:43:46;;;;;;;;;;;;;;;17.72;100.00;100323.91;1055772;28;19928;-53
2023/09/18 02:44:18;;;;;;;;;;;;;;;17.76;100.00;100324.97;1048064;28;20298;-54
2023/09/18 02:44:49;;;;;;;;;;;;;;;17.73;100.00;100322.84;1050146;28;20330;-54
2023/09/18 02:45:21;;;;;;;;;;;;;;;17.71;100.00;100327.69;1048409;28;20460;-53